Time;durP1;ratioP1;P1;durP2;ratioP2;P2;SDS_P1;SDS_P2;PMS_P1;PMS_P2;Temp;Humidity;BMP_temperature;BMP_pressure;BME280_temperature;BME280_humidity;BME280_pressure;Samples;Min_cycle;Max_cycle;Signal;HPM_P1;HPM_P2
2023/10/17 00:02:50;;;;;;;8.10;3.78;;;;;;;8.51;100.00;101859.09;5072068;28;20043;-67
2023/10/17 00:05:15;;;;;;;6.82;3.83;;;;;;;8.54;100.00;101862.41;5072457;28;20032;-67
2023/10/17 00:07:45;;;;;;;6.75;3.85;;;;;;;8.53;100.00;101861.59;5072501;28;20032;-66
2023/10/17 00:10:15;;;;;;;9.52;3.92;;;;;;;8.52;100.00;101859.91;5072923;28;20368;-65
2023/10/17 00:12:44;;;;;;;21.77;4.55;;;;;;;8.50;100.00;101854.69;5072939;28;20040;-67
2023/10/17 00:15:35;;;;;;;7.57;3.75;;;;;;;8.51;100.00;101852.81;5066679;28;20048;-67
2023/10/17 00:18:08;;;;;;;6.85;4.47;;;;;;;8.49;100.00;101852.19;5065667;28;20044;-67
2023/10/17 00:20:37;;;;;;;10.88;4.07;;;;;;;8.47;100.00;101851.50;5052639;28;20043;-67
2023/10/17 00:23:06;;;;;;;8.80;3.75;;;;;;;8.47;100.00;101843.44;5052764;28;20056;-66
2023/10/17 00:25:32;;;;;;;7.43;3.70;;;;;;;8.48;100.00;101842.41;5052797;28;20035;-67
2023/10/17 00:27:58;;;;;;;5.70;3.55;;;;;;;8.48;100.00;101853.19;5052699;28;20021;-66
2023/10/17 00:30:23;;;;;;;6.85;3.50;;;;;;;8.47;100.00;101852.38;5052152;28;20025;-65
2023/10/17 00:32:51;;;;;;;7.65;3.72;;;;;;;8.45;100.00;101842.78;5072244;28;20028;-67
2023/10/17 00:35:19;;;;;;;4.85;3.80;;;;;;;8.44;100.00;101836.56;5071016;28;20472;-67
2023/10/17 00:37:56;;;;;;;7.93;3.45;;;;;;;8.45;100.00;101829.31;5071252;28;20376;-66
2023/10/17 00:43:11;;;;;;;7.57;3.65;;;;;;;8.42;100.00;101830.47;5072689;28;20102;-67
2023/10/17 00:45:37;;;;;;;6.50;3.50;;;;;;;8.42;100.00;101824.25;5071204;28;20033;-67
2023/10/17 00:48:08;;;;;;;7.85;4.10;;;;;;;8.40;100.00;101824.44;5072732;28;20105;-65
2023/10/17 00:50:35;;;;;;;6.30;3.58;;;;;;;8.39;100.00;101830.84;5071881;28;20029;-68
2023/10/17 00:53:00;;;;;;;7.82;4.05;;;;;;;8.39;100.00;101833.53;5071180;28;20498;-67
2023/10/17 00:55:26;;;;;;;6.05;3.85;;;;;;;8.38;100.00;101831.03;5072174;28;20067;-67
2023/10/17 00:57:54;;;;;;;6.47;4.28;;;;;;;8.37;100.00;101824.81;5071768;28;20477;-67
2023/10/17 01:00:39;;;;;;;7.10;3.85;;;;;;;8.36;100.00;101828.53;5070065;28;20040;-66
2023/10/17 01:03:11;;;;;;;8.52;4.20;;;;;;;8.36;100.00;101830.38;5071068;28;20115;-67
2023/10/17 01:08:40;;;;;;;10.30;4.00;;;;;;;8.38;100.00;101836.41;5072099;28;20047;-67
2023/10/17 01:11:20;;;;;;;11.80;4.20;;;;;;;8.37;100.00;101832.06;5071994;28;20090;-67
2023/10/17 01:13:52;;;;;;;7.53;4.00;;;;;;;8.36;100.00;101836.59;5072291;28;20024;-66
2023/10/17 01:16:18;;;;;;;8.75;4.10;;;;;;;8.38;100.00;101841.81;5069703;28;20060;-66
2023/10/17 01:18:44;;;;;;;8.50;3.97;;;;;;;8.38;100.00;101845.38;5073214;28;20059;-67
2023/10/17 01:21:20;;;;;;;5.68;3.92;;;;;;;8.36;100.00;101843.88;5074939;28;20465;-66
2023/10/17 01:23:46;;;;;;;6.82;4.20;;;;;;;8.35;100.00;101834.97;5074830;28;20036;-66
2023/10/17 01:26:20;;;;;;;7.82;3.92;;;;;;;8.36;100.00;101827.69;5075130;28;20472;-67
2023/10/17 01:28:47;;;;;;;7.03;4.13;;;;;;;8.36;100.00;101827.69;5076025;28;20063;-67
2023/10/17 01:31:14;;;;;;;7.53;4.10;;;;;;;8.34;100.00;101820.63;5076019;28;20033;-67
2023/10/17 01:33:44;;;;;;;6.22;4.10;;;;;;;8.31;100.00;101812.91;5075721;28;20464;-65
2023/10/17 01:36:10;;;;;;;8.65;4.03;;;;;;;8.28;100.00;101815.97;5075907;28;20032;-67
2023/10/17 01:38:36;;;;;;;12.75;4.60;;;;;;;8.26;100.00;101817.19;5074319;28;20028;-67
2023/10/17 01:41:01;;;;;;;6.63;4.25;;;;;;;8.23;100.00;101822.94;5074674;28;20029;-65
2023/10/17 01:43:30;;;;;;;10.32;4.70;;;;;;;8.19;100.00;101817.09;5075476;28;20553;-65
2023/10/17 01:45:56;;;;;;;8.90;4.72;;;;;;;8.17;100.00;101821.84;5074435;28;20417;-67
2023/10/17 01:48:23;;;;;;;8.82;3.83;;;;;;;8.16;100.00;101817.47;5075578;28;20029;-67
2023/10/17 01:50:49;;;;;;;8.93;4.35;;;;;;;8.16;100.00;101806.69;5075629;28;20028;-66
2023/10/17 01:53:14;;;;;;;6.15;3.72;;;;;;;8.15;100.00;101802.28;5075799;28;20178;-67
2023/10/17 01:55:42;;;;;;;6.15;4.20;;;;;;;8.15;100.00;101791.50;5072584;28;20115;-67
2023/10/17 01:58:07;;;;;;;6.43;3.80;;;;;;;8.15;100.00;101795.06;5075359;28;20029;-66
2023/10/17 02:02:59;;;;;;;7.75;3.92;;;;;;;8.15;100.00;101788.81;5075378;28;20037;-67
2023/10/17 02:05:25;;;;;;;9.00;4.43;;;;;;;8.15;100.00;101780.72;5075130;28;20029;-66
2023/10/17 02:07:51;;;;;;;7.38;4.22;;;;;;;8.14;100.00;101785.28;5075835;28;20033;-68
2023/10/17 02:10:25;;;;;;;6.20;3.85;;;;;;;8.14;100.00;101776.38;5073376;28;20032;-67
2023/10/17 02:12:51;;;;;;;8.15;4.22;;;;;;;8.12;100.00;101773.88;5069561;28;20123;-66
2023/10/17 02:15:23;;;;;;;11.48;4.32;;;;;;;8.11;100.00;101774.06;5075246;28;20063;-66
2023/10/17 02:17:50;;;;;;;9.15;4.25;;;;;;;8.09;100.00;101774.25;5074495;28;20452;-66
2023/10/17 02:22:57;;;;;;;8.25;4.03;;;;;;;8.09;100.00;101763.47;5075120;28;20070;-65
2023/10/17 02:25:32;;;;;;;5.70;4.13;;;;;;;8.09;100.00;101754.50;5073734;28;20081;-67
2023/10/17 02:27:57;;;;;;;6.97;3.97;;;;;;;8.08;100.00;101758.25;5062415;28;20064;-66
2023/10/17 02:30:23;;;;;;;9.38;3.72;;;;;;;8.06;100.00;101757.59;5053113;28;20460;-67
2023/10/17 02:32:54;;;;;;;8.48;4.18;;;;;;;8.06;100.00;101773.75;5054290;28;20032;-65
2023/10/17 02:35:28;;;;;;;7.00;3.85;;;;;;;8.05;100.00;101766.72;5054853;28;20108;-67
2023/10/17 02:37:53;;;;;;;8.63;4.43;;;;;;;8.07;100.00;101772.75;5053272;28;20028;-67
2023/10/17 02:40:23;;;;;;;7.25;4.32;;;;;;;8.08;100.00;101775.25;5054353;28;20469;-66
2023/10/17 02:42:48;;;;;;;12.02;4.90;;;;;;;8.09;100.00;101778.78;5064920;28;20025;-68
2023/10/17 02:45:24;;;;;;;16.25;4.50;;;;;;;8.07;100.00;101781.66;5073407;28;20033;-66
2023/10/17 02:47:57;;;;;;;9.30;5.20;;;;;;;8.07;100.00;101776.25;5074379;28;20032;-67
2023/10/17 02:52:58;;;;;;;6.20;4.32;;;;;;;8.06;100.00;101777.31;5074576;28;20036;-67
2023/10/17 02:55:24;;;;;;;10.57;5.43;;;;;;;8.06;100.00;101776.44;5074401;28;20025;-67
2023/10/17 02:57:52;;;;;;;8.25;4.53;;;;;;;8.06;100.00;101771.06;5072712;28;20386;-66
2023/10/17 03:00:33;;;;;;;9.10;4.43;;;;;;;8.03;100.00;101772.28;5074106;28;20028;-67
2023/10/17 03:02:59;;;;;;;7.70;4.15;;;;;;;8.02;100.00;101761.66;5073104;28;20383;-66
2023/10/17 03:05:27;;;;;;;7.65;4.10;;;;;;;8.00;100.00;101759.16;5072943;28;20081;-68
2023/10/17 03:07:52;;;;;;;7.72;3.80;;;;;;;7.99;100.00;101760.19;5074321;28;20448;-67
2023/10/17 03:10:39;;;;;;;8.45;4.55;;;;;;;7.96;100.00;101756.00;5074428;28;20067;-67
2023/10/17 03:15:46;;;;;;;7.80;4.32;;;;;;;7.93;100.00;101759.06;5073821;28;20059;-66
2023/10/17 03:18:16;;;;;;;9.35;5.05;;;;;;;7.93;100.00;101760.94;5073920;28;20024;-66
2023/10/17 03:20:51;;;;;;;9.48;5.97;;;;;;;7.70;100.00;101758.28;5074065;28;20371;-66
2023/10/17 03:23:28;;;;;;;8.35;4.88;;;;;;;7.90;100.00;101764.84;5073844;28;20036;-67
2023/10/17 03:26:00;;;;;;;12.52;4.93;;;;;;;7.88;100.00;101757.94;5071266;28;20033;-66
2023/10/17 03:28:29;;;;;;;8.35;5.00;;;;;;;7.88;100.00;101761.50;5053495;28;20361;-66
2023/10/17 03:30:55;;;;;;;13.23;5.18;;;;;;;7.89;100.00;101759.63;5052184;28;20033;-66
2023/10/17 03:33:26;;;;;;;7.80;4.88;;;;;;;7.89;100.00;101773.09;5052400;28;20047;-66
2023/10/17 03:36:04;;;;;;;8.95;5.10;;;;;;;7.87;100.00;101780.53;5062901;28;20038;-65
2023/10/17 03:38:36;;;;;;;9.73;5.10;;;;;;;7.85;100.00;101767.25;5073602;28;20029;-65
2023/10/17 03:41:37;;;;;;;11.35;5.60;;;;;;;7.85;100.00;101767.25;5072609;28;20097;-67
2023/10/17 03:43:54;;;;;;;7.55;5.00;;;;;;;7.85;100.00;101778.03;5071925;28;20039;-67
2023/10/17 03:46:25;;;;;;;11.48;5.53;;;;;;;7.85;100.00;101782.56;5073096;28;20028;-66
2023/10/17 03:48:57;;;;;;;7.43;5.00;;;;;;;7.84;100.00;101779.03;5072892;28;20028;-66
2023/10/17 03:51:23;;;;;;;7.68;4.90;;;;;;;7.86;100.00;101777.00;5072086;28;20294;-66
2023/10/17 03:53:49;;;;;;;9.73;4.90;;;;;;;7.85;100.00;101774.47;5073033;28;20120;-66
2023/10/17 03:56:24;;;;;;;14.02;5.68;;;;;;;7.84;100.00;101775.53;5072926;28;20127;-66
2023/10/17 03:58:59;;;;;;;10.57;5.80;;;;;;;7.85;100.00;101782.56;5072879;28;20028;-66
2023/10/17 04:01:26;;;;;;;11.25;5.63;;;;;;;7.83;100.00;101773.84;5070505;28;20055;-67
2023/10/17 04:03:55;;;;;;;11.80;6.43;;;;;;;7.81;100.00;101779.41;5071412;28;20473;-67
2023/10/17 04:11:46;;;;;;;11.73;5.50;;;;;;;7.82;100.00;101773.00;5072673;28;20108;-67
2023/10/17 04:14:12;;;;;;;10.65;5.63;;;;;;;7.83;100.00;101774.66;5088360;28;20642;-67
2023/10/17 04:16:43;;;;;;;11.80;6.05;;;;;;;7.82;100.00;101773.00;5072468;28;20404;-65
2023/10/17 04:19:18;;;;;;;;;;;;;;;7.86;100.00;101777.00;5070747;28;20063;-65
2023/10/17 04:24:35;;;;;;;11.13;6.32;;;;;;;7.77;100.00;101775.41;5072631;28;20121;-66
2023/10/17 04:29:42;;;;;;;11.15;6.30;;;;;;;7.74;100.00;101768.53;5072547;28;20044;-67
2023/10/17 04:32:14;;;;;;;12.50;6.10;;;;;;;7.76;100.00;101776.41;5071326;28;20025;-66
2023/10/17 04:34:49;;;;;;;11.82;6.60;;;;;;;7.78;100.00;101782.47;5070336;28;20029;-66
2023/10/17 04:37:17;;;;;;;16.40;6.50;;;;;;;7.77;100.00;101784.31;5072155;28;20029;-67
2023/10/17 04:39:50;;;;;;;13.70;7.10;;;;;;;7.78;100.00;101777.91;5072350;28;20108;-67
2023/10/17 04:45:06;;;;;;;13.20;7.40;;;;;;;7.76;100.00;101793.44;5072228;28;20046;-65
2023/10/17 04:47:32;;;;;;;12.43;5.93;;;;;;;7.77;100.00;101784.31;5072428;28;20078;-65
2023/10/17 04:49:58;;;;;;;13.88;6.65;;;;;;;7.76;100.00;101779.09;5069850;28;20464;-67
2023/10/17 04:52:40;;;;;;;9.77;6.18;;;;;;;7.75;100.00;101780.16;5072190;28;20033;-67
2023/10/17 04:58:30;;;;;;;10.32;6.22;;;;;;;7.75;100.00;101770.19;5059430;28;20059;-66
2023/10/17 05:03:32;;;;;;;14.43;6.93;;;;;;;7.74;100.00;101767.69;5071269;28;20040;-66
2023/10/17 05:06:18;;;;;;;10.73;6.10;;;;;;;7.73;100.00;101763.31;5070184;28;20039;-65
2023/10/17 05:09:00;;;;;;;15.38;6.45;;;;;;;7.72;100.00;101765.19;5051956;28;20056;-66
2023/10/17 06:17:48;;;;;;;16.25;7.60;;;;;;;7.65;100.00;101747.25;5063642;28;20090;-65
2023/10/17 06:20:18;;;;;;;10.75;7.63;;;;;;;7.66;100.00;101746.22;5074811;28;20025;-68
2023/10/17 06:26:05;;;;;;;12.88;7.43;;;;;;;7.67;100.00;101758.66;5054737;28;20483;-67
2023/10/17 06:33:35;;;;;;;15.15;8.50;;;;;;;7.69;100.00;101756.66;5074040;28;20090;-67
2023/10/17 06:36:13;;;;;;;22.58;8.60;;;;;;;7.67;100.00;101754.13;5074480;28;20039;-68
2023/10/17 06:38:46;;;;;;;15.02;8.23;;;;;;;7.69;100.00;101762.84;5074942;28;20124;-68
2023/10/17 06:41:14;;;;;;;15.57;8.10;;;;;;;7.70;100.00;101758.28;5074554;28;20048;-67
2023/10/17 06:43:46;;;;;;;13.13;7.75;;;;;;;7.72;100.00;101761.66;5074738;28;20035;-69
2023/10/17 06:46:14;;;;;;;12.15;7.75;;;;;;;7.72;100.00;101765.19;5073170;28;20075;-67
2023/10/17 06:48:49;;;;;;;20.40;8.25;;;;;;;7.74;100.00;101768.53;5073590;28;20062;-67
2023/10/17 06:53:40;;;;;;;17.35;8.70;;;;;;;7.76;100.00;101769.19;5074497;28;20119;-66
2023/10/17 06:56:09;;;;;;;15.00;8.77;;;;;;;7.78;100.00;101779.78;5073668;28;20127;-67
2023/10/17 06:58:35;;;;;;;18.60;8.50;;;;;;;7.77;100.00;101776.22;5074550;28;20035;-67
2023/10/17 07:01:04;;;;;;;16.08;8.50;;;;;;;7.79;100.00;101781.47;5065808;28;20051;-67
2023/10/17 07:03:34;;;;;;;16.05;9.30;;;;;;;7.79;100.00;101778.78;5066470;28;20487;-67
2023/10/17 07:06:16;;;;;;;15.02;8.07;;;;;;;7.83;100.00;101782.75;5074150;28;20419;-69
2023/10/17 07:08:42;;;;;;;17.48;8.77;;;;;;;7.86;100.00;101776.16;5070699;28;20107;-68
2023/10/17 07:11:24;;;;;;;17.58;9.00;;;;;;;7.86;100.00;101768.91;5066065;28;20127;-65
2023/10/17 07:13:56;;;;;;;15.95;8.77;;;;;;;7.86;100.00;101758.13;5074663;28;20042;-70
2023/10/17 07:24:23;;;;;;;12.77;7.63;;;;;;;7.92;100.00;101752.00;5073545;28;20047;-69
2023/10/17 07:26:49;;;;;;;14.48;7.35;;;;;;;7.93;100.00;101748.28;5074183;28;20464;-68
2023/10/17 07:29:45;;;;;;;13.85;7.25;;;;;;;7.95;100.00;101754.31;5050024;28;20411;-67
2023/10/17 07:32:15;;;;;;;16.38;8.00;;;;;;;7.96;100.00;101761.41;5028745;28;20103;-67
2023/10/17 07:34:43;;;;;;;14.60;7.85;;;;;;;7.97;100.00;101760.38;5029368;28;20025;-69
2023/10/17 07:40:18;;;;;;;15.70;8.52;;;;;;;8.00;100.00;101772.63;5029933;28;20435;-67
2023/10/17 07:42:45;;;;;;;20.13;7.88;;;;;;;8.02;100.00;101761.66;5031707;28;20135;-68
2023/10/17 07:45:14;;;;;;;14.57;7.13;;;;;;;8.03;100.00;101769.59;5048122;28;20040;-67
2023/10/17 07:47:41;;;;;;;13.13;7.63;;;;;;;8.02;100.00;101761.66;5035606;28;20029;-65
2023/10/17 07:50:13;;;;;;;14.48;7.60;;;;;;;7.99;100.00;101758.31;5029530;28;20034;-67
2023/10/17 07:52:50;;;;;;;19.48;8.15;;;;;;;7.99;100.00;101758.31;5029585;28;20026;-68
2023/10/17 07:55:36;;;;;;;14.45;7.65;;;;;;;7.99;100.00;101763.72;5029383;28;20470;-67
2023/10/17 07:58:06;;;;;;;11.32;7.25;;;;;;;7.99;100.00;101762.91;5029546;28;20409;-67
2023/10/17 08:00:33;;;;;;;13.57;7.00;;;;;;;7.98;100.00;101767.44;5026835;28;20053;-67
2023/10/17 08:03:14;;;;;;;12.70;6.93;;;;;;;7.98;100.00;101767.44;5030579;28;20029;-66
2023/10/17 08:08:42;;;;;;;17.58;7.43;;;;;;;7.90;100.00;101745.13;5048779;28;20128;-67
2023/10/17 08:11:08;;;;;;;12.43;6.72;;;;;;;7.90;100.00;101750.53;5049202;28;20388;-67
2023/10/17 08:13:34;;;;;;;10.32;6.70;;;;;;;7.92;100.00;101757.38;5048892;28;20029;-67
2023/10/17 08:16:32;;;;;;;34.97;7.47;;;;;;;7.96;100.00;101756.00;5046046;28;20041;-67
2023/10/17 08:19:13;;;;;;;12.10;6.55;;;;;;;7.98;100.00;101745.88;5028970;28;20046;-68
2023/10/17 08:24:13;;;;;;;12.20;6.43;;;;;;;8.02;100.00;101750.88;5029004;28;20037;-68
2023/10/17 08:26:40;;;;;;;14.45;9.65;;;;;;;7.96;100.00;101747.09;5028681;28;20033;-67
2023/10/17 08:29:08;;;;;;;14.98;6.82;;;;;;;8.11;100.00;101758.69;5033500;28;20400;-67
2023/10/17 08:31:43;;;;;;;10.45;6.53;;;;;;;8.16;100.00;101747.34;5038368;28;20029;-68
2023/10/17 08:34:12;;;;;;;11.30;6.57;;;;;;;8.21;100.00;101750.31;5028874;28;20030;-67
2023/10/17 08:36:47;;;;;;;10.70;6.45;;;;;;;8.26;100.00;101747.91;5027248;28;20029;-67
2023/10/17 08:39:31;;;;;;;10.80;6.95;;;;;;;8.32;100.00;101754.44;5025351;28;20061;-68
2023/10/17 08:42:00;;;;;;;12.00;6.50;;;;;;;8.36;100.00;101744.91;5015867;28;20029;-67
2023/10/17 08:44:29;;;;;;;10.10;6.20;;;;;;;8.43;100.00;101742.31;5015315;28;20036;-68
2023/10/17 08:46:56;;;;;;;10.65;6.38;;;;;;;8.47;100.00;101743.63;5014135;28;20045;-68
2023/10/17 08:49:22;;;;;;;13.13;5.95;;;;;;;8.50;100.00;101745.97;5014789;28;20034;-68
2023/10/17 08:51:50;;;;;;;10.00;5.82;;;;;;;8.51;100.00;101744.91;5015380;28;20034;-67
2023/10/17 08:54:19;;;;;;;10.98;6.00;;;;;;;8.56;100.00;101753.31;5022995;28;20025;-68
2023/10/17 08:56:47;;;;;;;9.45;5.38;;;;;;;8.64;100.00;101755.88;5035051;28;20030;-68
2023/10/17 08:59:13;;;;;;;9.90;5.07;;;;;;;8.70;100.00;101756.97;5034737;28;20041;-67
2023/10/17 09:01:59;;;;;;;9.20;4.78;;;;;;;8.78;100.00;101761.44;5017573;28;20025;-67
2023/10/17 09:04:26;;;;;;;6.95;4.53;;;;;;;8.83;100.00;101758.97;5014660;28;20419;-67
2023/10/17 09:06:59;;;;;;;9.82;5.05;;;;;;;8.90;100.00;101762.59;5014860;28;20091;-68
2023/10/17 09:09:28;;;;;;;6.78;4.82;;;;;;;8.99;100.00;101758.75;5014852;28;20026;-67
2023/10/17 09:14:38;;;;;;;7.22;4.90;;;;;;;9.14;100.00;101755.16;5014831;28;20164;-67
2023/10/17 09:17:39;;;;;;;8.93;5.05;;;;;;;9.16;100.00;101750.38;5028986;28;20129;-68
2023/10/17 09:20:05;;;;;;;10.80;5.13;;;;;;;9.17;100.00;101746.66;5012700;28;20049;-67
2023/10/17 09:22:30;;;;;;;7.65;5.32;;;;;;;9.21;100.00;101748.78;5019933;28;20469;-68
2023/10/17 09:24:56;;;;;;;6.50;4.15;;;;;;;9.24;100.00;101750.28;5034507;28;20038;-67
2023/10/17 09:27:22;;;;;;;8.52;5.05;;;;;;;9.30;100.00;101751.34;5034194;28;20465;-66
2023/10/17 09:29:52;;;;;;;5.47;4.20;;;;;;;9.38;100.00;101752.03;5034332;28;20033;-67
2023/10/17 09:32:33;;;;;;;9.45;4.80;;;;;;;9.41;100.00;101748.13;5034430;28;20059;-66
2023/10/17 09:35:14;;;;;;;5.32;4.32;;;;;;;9.45;100.00;101740.44;5021487;28;20034;-67
2023/10/17 09:37:44;;;;;;;6.85;4.40;;;;;;;9.50;100.00;101746.13;5014304;28;20516;-68
2023/10/17 09:40:12;;;;;;;7.63;5.20;;;;;;;9.47;100.00;101749.22;5014412;28;20115;-66
2023/10/17 09:42:45;;;;;;;7.03;4.13;;;;;;;9.57;100.00;101750.53;5014268;28;20030;-67
2023/10/17 09:45:15;;;;;;;6.60;3.88;;;;;;;9.62;100.00;101752.66;5012338;28;20061;-67
2023/10/17 09:47:46;;;;;;;8.50;3.95;;;;;;;9.65;100.00;101752.25;5021300;28;20116;-67
2023/10/17 09:50:13;;;;;;;6.07;3.72;;;;;;;9.69;100.00;101750.84;5017338;28;20038;-67
2023/10/17 09:52:40;;;;;;;6.18;4.90;;;;;;;9.70;100.00;101749.78;5013297;28;20080;-67
2023/10/17 09:55:06;;;;;;;6.22;3.53;;;;;;;9.76;100.00;101735.47;5014853;28;20030;-67
2023/10/17 09:57:35;;;;;;;6.18;3.75;;;;;;;9.84;100.00;101744.47;5033520;28;20120;-67
2023/10/17 10:00:27;;;;;;;5.97;3.80;;;;;;;9.88;100.00;101751.16;5033685;28;20025;-67
2023/10/17 10:02:54;;;;;;;5.65;3.63;;;;;;;9.91;100.00;101751.59;5016515;28;20038;-68
2023/10/17 10:05:29;;;;;;;6.22;4.00;;;;;;;9.95;100.00;101754.75;5014551;28;20041;-67
2023/10/17 10:07:59;;;;;;;5.00;3.33;;;;;;;10.00;100.00;101757.69;5013895;28;20030;-68
2023/10/17 10:10:44;;;;;;;6.18;3.53;;;;;;;10.07;100.00;101758.56;5013974;28;20152;-67
2023/10/17 10:13:13;;;;;;;5.72;3.25;;;;;;;10.09;100.00;101759.19;5014142;28;20025;-67
2023/10/17 10:15:59;;;;;;;5.00;3.15;;;;;;;10.12;100.00;101752.56;5013681;28;20037;-68
2023/10/17 10:18:47;;;;;;;5.70;3.50;;;;;;;10.20;100.00;101754.25;5012898;28;20041;-66
2023/10/17 10:21:12;;;;;;;6.30;3.13;;;;;;;10.26;100.00;101748.88;5013170;28;20042;-67
2023/10/17 10:23:39;;;;;;;7.82;3.28;;;;;;;10.31;100.00;101751.00;5019506;28;20044;-66
2023/10/17 10:26:11;;;;;;;3.63;3.00;;;;;;;10.36;100.00;101742.31;5033376;28;20033;-68
2023/10/17 10:28:40;;;;;;;6.38;3.63;;;;;;;10.35;100.00;101736.03;5031365;28;20064;-67
2023/10/17 10:31:29;;;;;;;5.80;3.42;;;;;;;10.46;100.00;101740.03;5032954;28;20026;-72
2023/10/17 10:33:56;;;;;;;7.20;3.90;;;;;;;10.41;100.00;101726.28;5018822;28;20045;-69
2023/10/17 10:36:26;;;;;;;7.32;3.55;;;;;;;10.52;100.00;101735.69;4995400;28;20038;-70
2023/10/17 10:38:55;;;;;;;9.98;3.85;;;;;;;10.55;100.00;101727.16;5009176;28;20481;-68
2023/10/17 10:41:25;;;;;;;4.72;2.97;;;;;;;10.63;100.00;101729.72;5012082;28;20037;-68
2023/10/17 10:43:57;;;;;;;7.65;3.28;;;;;;;10.70;100.00;101722.41;5012955;28;20112;-69
2023/10/17 10:46:23;;;;;;;7.22;3.63;;;;;;;10.69;100.00;101718.06;5013233;28;20161;-74
2023/10/17 10:48:56;;;;;;;9.00;3.63;;;;;;;10.77;100.00;101717.84;5011822;28;20516;-71
2023/10/17 10:51:24;;;;;;;7.35;3.80;;;;;;;10.76;100.00;101720.75;5008981;28;20390;-69
2023/10/17 10:53:55;;;;;;;10.10;3.20;;;;;;;10.88;100.00;101713.69;5011009;28;20195;-70
2023/10/17 10:56:22;;;;;;;;;;;;;;;10.95;100.00;101708.31;5013068;28;20497;-69
2023/10/17 10:58:56;;;;;;;8.52;3.00;;;;;;;10.98;100.00;101702.47;5010803;28;19936;-68
2023/10/17 11:01:27;;;;;;;4.57;2.83;;;;;;;11.06;100.00;101704.97;5008187;28;20034;-69
2023/10/17 11:03:53;;;;;;;5.35;3.17;;;;;;;11.12;100.00;101701.44;5027756;28;20026;-68
2023/10/17 11:06:25;;;;;;;3.85;2.90;;;;;;;11.16;100.00;101700.00;5012977;28;20037;-70
2023/10/17 11:08:51;;;;;;;4.55;3.00;;;;;;;11.22;100.00;101694.78;5011349;28;20029;-68
2023/10/17 11:11:17;;;;;;;3.72;2.55;;;;;;;11.25;100.00;101694.38;5013028;28;20580;-68
2023/10/17 11:13:48;;;;;;;4.57;2.83;;;;;;;11.20;99.11;101694.16;5012502;28;20382;-66
2023/10/17 11:16:17;;;;;;;5.72;2.80;;;;;;;11.25;100.00;101697.09;5011939;28;20461;-69
2023/10/17 11:18:46;;;;;;;5.15;2.60;;;;;;;11.37;100.00;101687.28;5021436;28;20029;-73
2023/10/17 11:21:12;;;;;;;3.88;2.30;;;;;;;11.45;100.00;101680.81;5033058;28;20453;-76
2023/10/17 11:23:46;;;;;;;5.45;2.95;;;;;;;11.38;89.16;101688.09;5031272;28;20412;-70
2023/10/17 11:26:13;;;;;;;3.42;2.08;;;;;;;11.47;89.30;101676.84;5032444;28;20029;-69
2023/10/17 11:28:42;;;;;;;5.28;2.65;;;;;;;11.47;91.30;101676.84;5031871;28;20045;-72
2023/10/17 11:31:21;;;;;;;2.88;1.77;;;;;;;11.56;90.65;101666.59;5016757;28;20030;-70
2023/10/17 11:33:55;;;;;;;3.03;2.25;;;;;;;11.60;89.04;101662.44;5012568;28;20041;-70
2023/10/17 11:36:24;;;;;;;5.13;2.50;;;;;;;11.57;86.39;101659.31;5012674;28;20073;-70
2023/10/17 11:38:55;;;;;;;6.55;2.80;;;;;;;11.61;88.87;101658.69;5012412;28;20038;-73
2023/10/17 11:41:20;;;;;;;3.83;2.50;;;;;;;11.71;85.02;101658.22;5012768;28;20030;-76
2023/10/17 11:43:53;;;;;;;3.00;2.40;;;;;;;11.70;83.01;101651.16;5014416;28;20041;-71
2023/10/17 11:46:32;;;;;;;7.03;2.70;;;;;;;11.77;93.81;101651.94;5026254;28;20569;-71
2023/10/17 11:49:26;;;;;;;2.75;2.38;;;;;;;11.86;91.18;101655.25;5005411;28;20030;-72
2023/10/17 11:52:23;;;;;;;6.35;2.85;;;;;;;11.92;95.26;101651.69;5027316;28;20034;-70
2023/10/17 11:54:56;;;;;;;6.05;2.30;;;;;;;11.96;89.78;101652.97;5010476;28;20034;-69
2023/10/17 11:57:25;;;;;;;6.60;2.50;;;;;;;11.97;84.90;101656.50;5013000;28;20037;-69
2023/10/17 11:59:59;;;;;;;3.28;2.30;;;;;;;11.97;87.06;101661.94;5010563;28;20053;-69
2023/10/17 12:02:25;;;;;;;5.03;2.05;;;;;;;11.97;85.36;101661.94;5010148;28;20478;-74
2023/10/17 12:04:51;;;;;;;3.47;2.33;;;;;;;11.91;85.13;101674.44;5014972;28;20029;-72
2023/10/17 12:07:17;;;;;;;4.25;2.47;;;;;;;11.83;82.05;101661.13;5031954;28;20040;-71
2023/10/17 12:09:43;;;;;;;5.20;2.58;;;;;;;11.91;85.71;101669.00;5031977;28;20033;-70
2023/10/17 12:12:08;;;;;;;3.03;2.33;;;;;;;11.84;83.44;101657.38;5031860;28;20025;-68
2023/10/17 12:14:35;;;;;;;3.28;2.30;;;;;;;11.94;88.81;101646.94;5032718;28;20037;-72
2023/10/17 12:17:00;;;;;;;6.93;2.70;;;;;;;11.93;89.28;101630.88;5035548;28;20128;-71
2023/10/17 12:19:27;;;;;;;3.22;2.70;;;;;;;11.91;96.49;101628.31;5034421;28;20473;-74
2023/10/17 12:21:54;;;;;;;3.15;2.47;;;;;;;11.89;96.97;101622.28;5027220;28;20046;-73
2023/10/17 12:24:24;;;;;;;3.58;3.28;;;;;;;11.92;98.06;101618.31;5035538;28;20480;-70
2023/10/17 12:26:50;;;;;;;3.75;2.53;;;;;;;11.91;100.00;101620.19;5035696;28;20022;-70
2023/10/17 12:29:17;;;;;;;7.05;3.15;;;;;;;11.88;96.10;101610.63;5035228;28;20448;-70
2023/10/17 12:31:42;;;;;;;4.70;2.90;;;;;;;11.84;99.58;101603.13;5035552;28;20446;-70
2023/10/17 12:34:08;;;;;;;7.00;3.40;;;;;;;11.73;96.80;101596.50;5035269;28;20025;-73
2023/10/17 12:36:36;;;;;;;5.05;3.10;;;;;;;11.74;96.27;101587.31;5034251;28;20362;-70
2023/10/17 12:39:08;;;;;;;4.80;3.10;;;;;;;11.83;99.04;101579.75;5017140;28;20026;-69
2023/10/17 12:41:35;;;;;;;4.28;3.35;;;;;;;11.83;100.00;101580.59;5020084;28;20041;-68
2023/10/17 12:44:01;;;;;;;6.18;3.60;;;;;;;11.80;91.86;101566.63;5025161;28;20034;-70
2023/10/17 12:46:26;;;;;;;4.60;2.83;;;;;;;11.88;95.78;101561.81;5014172;28;20034;-69
2023/10/17 12:48:52;;;;;;;4.35;2.90;;;;;;;11.81;91.32;101558.28;5014034;28;20036;-71
2023/10/17 12:51:20;;;;;;;4.10;2.50;;;;;;;11.86;90.48;101552.22;5013860;28;20048;-72
2023/10/17 12:53:51;;;;;;;4.97;2.47;;;;;;;11.84;100.00;101554.31;5015402;28;20075;-71
2023/10/17 12:56:17;;;;;;;4.40;2.88;;;;;;;11.78;98.05;101550.59;5014297;28;20037;-73
2023/10/17 12:58:43;;;;;;;4.18;2.70;;;;;;;11.86;100.00;101555.75;5014021;28;20601;-71
2023/10/17 13:01:12;;;;;;;2.63;2.42;;;;;;;11.88;100.00;101540.09;5016717;28;20594;-77
2023/10/17 13:03:38;;;;;;;4.72;3.13;;;;;;;11.84;96.23;101547.00;5033922;28;20041;-72
2023/10/17 13:06:06;;;;;;;3.85;2.72;;;;;;;11.91;99.24;101546.97;5033545;28;20441;-80
2023/10/17 13:08:32;;;;;;;6.20;3.03;;;;;;;11.89;92.80;101549.06;5034829;28;20026;-72
2023/10/17 13:11:02;;;;;;;6.32;2.70;;;;;;;11.87;98.01;101534.91;5033161;28;20468;-76
2023/10/17 13:13:29;;;;;;;5.78;3.40;;;;;;;11.75;91.85;101540.16;5014707;28;20057;-73
2023/10/17 13:15:57;;;;;;;5.13;2.83;;;;;;;11.73;94.62;101536.84;5015012;28;20037;-74
2023/10/17 13:18:28;;;;;;;7.03;2.75;;;;;;;11.81;92.62;101541.19;5013888;28;20026;-71
2023/10/17 13:20:57;;;;;;;4.35;2.90;;;;;;;11.77;93.72;101531.81;5012598;28;20088;-73
2023/10/17 13:23:23;;;;;;;4.93;2.63;;;;;;;11.85;96.21;101535.13;5014292;28;20088;-73
2023/10/17 13:25:48;;;;;;;5.10;3.10;;;;;;;11.80;99.76;101526.78;5014933;28;20443;-75
2023/10/17 13:28:16;;;;;;;4.82;2.90;;;;;;;11.91;100.00;101529.88;5012736;28;20046;-72
2023/10/17 13:30:42;;;;;;;5.70;2.60;;;;;;;11.93;98.55;101541.38;5014091;28;20030;-74
2023/10/17 13:33:07;;;;;;;4.40;2.95;;;;;;;11.95;99.36;101525.72;5011190;28;20104;-72
2023/10/17 13:35:37;;;;;;;4.45;3.20;;;;;;;11.88;100.00;101531.13;5012599;28;20045;-74
2023/10/17 13:38:03;;;;;;;6.05;2.70;;;;;;;11.98;99.94;101530.69;5014084;28;20064;-71
2023/10/17 13:40:32;;;;;;;4.88;3.45;;;;;;;12.03;100.00;101526.28;5014112;28;20118;-72
2023/10/17 13:42:58;;;;;;;3.78;3.20;;;;;;;12.04;99.78;101521.69;5012931;28;20026;-69
2023/10/17 13:45:23;;;;;;;3.40;3.10;;;;;;;12.01;100.00;101516.69;5012178;28;20034;-66
2023/10/17 13:47:57;;;;;;;4.32;3.50;;;;;;;12.08;100.00;101524.78;5011396;28;20018;-71
2023/10/17 13:50:23;;;;;;;2.72;2.45;;;;;;;12.15;96.22;101521.00;5013044;28;20030;-68